Time,TemperatureF,DewpointF,PressureIn,WindDirection,WindDirectionDegrees,WindSpeedMPH,WindSpeedGustMPH,Humidity,HourlyPrecipIn,Conditions,Clouds,dailyrainin,SolarRadiationWatts/m^2,SoftwareType,DateUTC
2013-08-25 00:01:00,65.5,62.2,30.30,NE,49,1.0,1.0,89,0.00,,,0.00,0,Wunderground v.1.15,2013-08-25 04:01:00,
2013-08-25 00:02:00,65.5,62.2,30.30,NE,49,1.0,1.0,89,0.00,,,0.00,0,Wunderground v.1.15,2013-08-25 04:02:00,
2013-08-25 00:04:00,65.5,62.5,30.30,NE,49,1.0,1.0,90,0.00,,,0.00,0,Wunderground v.1.15,2013-08-25 04:04:00,
2013-08-25 00:06:00,65.5,62.5,30.30,NE,49,1.0,2.0,90,0.00,,,0.00,0,Wunderground v.1.15,2013-08-25 04:06:00,
2013-08-25 00:12:00,65.5,62.5,30.30,NE,49,0.0,0.0,90,0.00,,,0.00,0,Wunderground v.1.15,2013-08-25 04:12:00,
2013-08-25 00:16:00,65.5,62.5,30.29,NE,49,0.0,1.0,90,0.00,,,0.00,0,Wunderground v.1.15,2013-08-25 04:16:00,
2013-08-25 00:22:00,65.3,62.3,30.29,NE,49,0.0,0.0,90,0.00,,,0.00,0,Wunderground v.1.15,2013-08-25 04:22:00,
2013-08-25 00:28:00,65.2,62.5,30.29,NE,49,0.0,0.0,91,0.00,,,0.00,0,Wunderground v.1.15,2013-08-25 04:28:00,
2013-08-25 00:34:00,65.2,62.5,30.30,NE,49,0.0,0.0,91,0.00,,,0.00,0,Wunderground v.1.15,2013-08-25 04:34:00,
2013-08-25 00:40:00,65.0,62.3,30.30,NE,49,0.0,0.0,91,0.00,,,0.00,0,Wunderground v.1.15,2013-08-25 04:40:00,
2013-08-25 00:46:00,64.8,62.1,30.30,NE,49,0.0,0.0,91,0.00,,,0.00,0,Wunderground v.1.15,2013-08-25 04:46:00,
2013-08-25 00:52:00,64.7,62.0,30.30,NE,49,0.0,0.0,91,0.00,,,0.00,0,Wunderground v.1.15,2013-08-25 04:52:00,
2013-08-25 00:58:00,64.5,62.1,30.30,NE,49,0.0,0.0,92,0.00,,,0.00,0,Wunderground v.1.15,2013-08-25 04:58:00,
2013-08-25 01:04:00,64.5,62.1,30.30,NE,49,0.0,0.0,92,0.00,,,0.00,0,Wunderground v.1.15,2013-08-25 05:04:00,
2013-08-25 01:10:00,64.3,61.9,30.30,NE,49,0.0,0.0,92,0.00,,,0.00,0,Wunderground v.1.15,2013-08-25 05:10:00,
2013-08-25 01:16:00,64.2,61.8,30.29,NE,49,0.0,0.0,92,0.00,,,0.00,0,Wunderground v.1.15,2013-08-25 05:16:00,
2013-08-25 01:22:00,64.0,61.6,30.29,NE,49,0.0,0.0,92,0.00,,,0.00,0,Wunderground v.1.15,2013-08-25 05:22:00,
2013-08-25 01:28:00,63.9,61.8,30.29,NE,49,0.0,0.0,93,0.00,,,0.00,0,Wunderground v.1.15,2013-08-25 05:28:00,
2013-08-25 01:34:00,63.7,61.6,30.30,NE,49,0.0,0.0,93,0.00,,,0.00,0,Wunderground v.1.15,2013-08-25 05:34:00,
2013-08-25 01:40:00,63.5,61.4,30.30,NE,49,0.0,0.0,93,0.00,,,0.00,0,Wunderground v.1.15,2013-08-25 05:40:00,
2013-08-25 01:46:00,63.4,61.3,30.30,NE,49,0.0,0.0,93,0.00,,,0.00,0,Wunderground v.1.15,2013-08-25 05:46:00,
2013-08-25 01:52:00,63.2,61.1,30.30,NE,49,0.0,0.0,93,0.00,,,0.00,0,Wunderground v.1.15,2013-08-25 05:52:00,
2013-08-25 01:58:00,63.1,61.3,30.30,NE,49,0.0,0.0,94,0.00,,,0.00,0,Wunderground v.1.15,2013-08-25 05:58:00,
2013-08-25 02:04:00,63.1,61.3,30.30,NE,49,0.0,0.0,94,0.00,,,0.00,0,Wunderground v.1.15,2013-08-25 06:04:00,
2013-08-25 02:10:00,62.9,61.1,30.30,NE,49,0.0,0.0,94,0.00,,,0.00,0,Wunderground v.1.15,2013-08-25 06:10:00,
2013-08-25 02:16:00,62.9,61.1,30.29,NE,49,0.0,0.0,94,0.00,,,0.00,0,Wunderground v.1.15,2013-08-25 06:16:00,
2013-08-25 02:22:00,62.7,61.2,30.29,NE,49,0.0,0.0,95,0.00,,,0.00,0,Wunderground v.1.15,2013-08-25 06:22:00,
2013-08-25 02:28:00,62.6,61.1,30.29,NE,49,0.0,0.0,95,0.00,,,0.00,0,Wunderground v.1.15,2013-08-25 06:28:00,
2013-08-25 02:34:00,62.4,60.9,30.29,NE,49,0.0,0.0,95,0.00,,,0.00,0,Wunderground v.1.15,2013-08-25 06:34:00,
2013-08-25 02:40:00,62.4,60.9,30.29,NE,49,0.0,0.0,95,0.00,,,0.00,0,Wunderground v.1.15,2013-08-25 06:40:00,
2013-08-25 02:46:00,62.3,60.8,30.29,NE,49,0.0,0.0,95,0.00,,,0.00,0,Wunderground v.1.15,2013-08-25 06:46:00,
2013-08-25 02:52:00,62.1,60.7,30.29,NE,49,0.0,0.0,95,0.00,,,0.00,0,Wunderground v.1.15,2013-08-25 06:52:00,
2013-08-25 02:58:00,62.1,60.7,30.29,NE,49,0.0,0.0,95,0.00,,,0.00,0,Wunderground v.1.15,2013-08-25 06:58:00,
2013-08-25 03:04:00,62.0,60.6,30.29,NE,49,0.0,0.0,95,0.00,,,0.00,0,Wunderground v.1.15,2013-08-25 07:04:00,
2013-08-25 03:10:00,62.0,60.8,30.29,NE,49,0.0,0.0,96,0.00,,,0.00,0,Wunderground v.1.15,2013-08-25 07:10:00,
2013-08-25 03:16:00,62.0,60.8,30.29,NE,49,0.0,0.0,96,0.00,,,0.00,0,Wunderground v.1.15,2013-08-25 07:16:00,
2013-08-25 03:22:00,62.1,60.9,30.29,NE,49,0.0,1.0,96,0.00,,,0.00,0,Wunderground v.1.15,2013-08-25 07:22:00,
2013-08-25 03:28:00,62.1,60.9,30.29,NE,49,0.0,1.0,96,0.00,,,0.00,0,Wunderground v.1.15,2013-08-25 07:28:00,
2013-08-25 03:34:00,62.1,60.9,30.29,NE,49,0.0,0.0,96,0.00,,,0.00,0,Wunderground v.1.15,2013-08-25 07:34:00,
2013-08-25 03:40:00,62.1,60.9,30.29,NE,49,0.0,0.0,96,0.00,,,0.00,0,Wunderground v.1.15,2013-08-25 07:40:00,
2013-08-25 03:46:00,62.0,60.8,30.29,NE,49,0.0,0.0,96,0.00,,,0.00,0,Wunderground v.1.15,2013-08-25 07:46:00,
2013-08-25 03:52:00,62.0,60.8,30.29,NE,49,0.0,0.0,96,0.00,,,0.00,0,Wunderground v.1.15,2013-08-25 07:52:00,
2013-08-25 03:58:00,61.8,60.9,30.29,NE,49,0.0,0.0,97,0.00,,,0.00,0,Wunderground v.1.15,2013-08-25 07:58:00,
2013-08-25 04:04:00,61.6,60.7,30.29,NE,49,0.0,0.0,97,0.00,,,0.00,0,Wunderground v.1.15,2013-08-25 08:04:00,
2013-08-25 04:10:00,61.6,60.7,30.29,NE,49,0.0,0.0,97,0.00,,,0.00,0,Wunderground v.1.15,2013-08-25 08:10:00,
2013-08-25 04:16:00,61.5,60.6,30.29,NE,49,0.0,0.0,97,0.00,,,0.00,0,Wunderground v.1.15,2013-08-25 08:16:00,
2013-08-25 04:22:00,61.5,60.6,30.29,NE,49,0.0,0.0,97,0.00,,,0.00,0,Wunderground v.1.15,2013-08-25 08:22:00,
2013-08-25 04:28:00,61.5,60.6,30.29,NE,49,0.0,0.0,97,0.00,,,0.00,0,Wunderground v.1.15,2013-08-25 08:28:00,
2013-08-25 04:34:00,61.3,60.4,30.29,NE,49,0.0,0.0,97,0.00,,,0.00,0,Wunderground v.1.15,2013-08-25 08:34:00,
2013-08-25 04:40:00,61.3,60.4,30.29,NE,49,0.0,0.0,97,0.00,,,0.00,0,Wunderground v.1.15,2013-08-25 08:40:00,
2013-08-25 04:46:00,61.3,60.4,30.30,NE,49,0.0,0.0,97,0.00,,,0.00,0,Wunderground v.1.15,2013-08-25 08:46:00,
2013-08-25 04:52:00,61.2,60.3,30.30,NE,49,0.0,0.0,97,0.00,,,0.00,0,Wunderground v.1.15,2013-08-25 08:52:00,
2013-08-25 04:58:00,61.2,60.3,30.30,NE,49,0.0,0.0,97,0.00,,,0.00,0,Wunderground v.1.15,2013-08-25 08:58:00,
2013-08-25 05:04:00,61.0,60.1,30.30,NE,49,0.0,0.0,97,0.00,,,0.00,0,Wunderground v.1.15,2013-08-25 09:04:00,
2013-08-25 05:10:00,60.9,60.0,30.30,NE,49,0.0,0.0,97,0.00,,,0.00,0,Wunderground v.1.15,2013-08-25 09:10:00,
2013-08-25 05:16:00,60.9,60.0,30.30,NE,49,0.0,0.0,97,0.00,,,0.00,0,Wunderground v.1.15,2013-08-25 09:16:00,
2013-08-25 05:22:00,60.9,60.0,30.30,NE,49,0.0,0.0,97,0.00,,,0.00,0,Wunderground v.1.15,2013-08-25 09:22:00,
2013-08-25 05:28:00,60.7,59.8,30.30,NE,49,0.0,0.0,97,0.00,,,0.00,0,Wunderground v.1.15,2013-08-25 09:28:00,
2013-08-25 05:34:00,60.7,59.8,30.31,NE,49,0.0,0.0,97,0.00,,,0.00,0,Wunderground v.1.15,2013-08-25 09:34:00,
2013-08-25 05:40:00,60.7,59.8,30.31,NE,49,0.0,0.0,97,0.00,,,0.00,0,Wunderground v.1.15,2013-08-25 09:40:00,
2013-08-25 05:46:00,60.7,59.8,30.31,NE,49,0.0,0.0,97,0.00,,,0.00,0,Wunderground v.1.15,2013-08-25 09:46:00,
2013-08-25 05:52:00,60.7,59.8,30.31,NE,49,0.0,2.0,97,0.00,,,0.00,0,Wunderground v.1.15,2013-08-25 09:52:00,
2013-08-25 05:58:00,60.5,59.6,30.31,NE,49,1.0,2.0,97,0.00,,,0.00,0,Wunderground v.1.15,2013-08-25 09:58:00,
2013-08-25 06:04:00,60.5,59.9,30.31,NE,49,1.0,1.0,98,0.00,,,0.00,0,Wunderground v.1.15,2013-08-25 10:04:00,
2013-08-25 06:10:00,60.5,59.9,30.31,NE,49,0.0,0.0,98,0.00,,,0.00,0,Wunderground v.1.15,2013-08-25 10:10:00,
2013-08-25 06:16:00,60.5,59.9,30.32,NE,49,0.0,0.0,98,0.00,,,0.00,0,Wunderground v.1.15,2013-08-25 10:16:00,
2013-08-25 06:22:00,60.5,59.9,30.32,NE,49,0.0,0.0,98,0.00,,,0.00,0,Wunderground v.1.15,2013-08-25 10:22:00,
2013-08-25 06:28:00,60.5,59.9,30.32,NE,49,0.0,0.0,98,0.00,,,0.00,0,Wunderground v.1.15,2013-08-25 10:28:00,
2013-08-25 06:34:00,60.5,59.9,30.32,NE,49,0.0,1.0,98,0.00,,,0.00,0,Wunderground v.1.15,2013-08-25 10:34:00,
2013-08-25 06:40:00,60.5,59.9,30.32,NE,49,0.0,0.0,98,0.00,,,0.00,0,Wunderground v.1.15,2013-08-25 10:40:00,
2013-08-25 06:46:00,60.5,59.9,30.32,NE,49,0.0,0.0,98,0.00,,,0.00,7,Wunderground v.1.15,2013-08-25 10:46:00,
2013-08-25 06:52:00,60.5,59.9,30.32,NE,49,0.0,0.0,98,0.00,,,0.00,9,Wunderground v.1.15,2013-08-25 10:52:00,
2013-08-25 06:58:00,60.5,59.9,30.32,NE,49,0.0,2.0,98,0.00,,,0.00,12,Wunderground v.1.15,2013-08-25 10:58:00,
2013-08-25 07:04:00,60.5,59.9,30.33,NE,49,0.0,1.0,98,0.00,,,0.00,16,Wunderground v.1.15,2013-08-25 11:04:00,
2013-08-25 07:10:00,60.7,60.1,30.33,NNE,18,1.0,1.0,98,0.00,,,0.00,21,Wunderground v.1.15,2013-08-25 11:10:00,
2013-08-25 07:16:00,61.0,60.7,30.34,NNE,18,1.0,2.0,99,0.00,,,0.00,23,Wunderground v.1.15,2013-08-25 11:16:00,
2013-08-25 07:22:00,61.2,60.9,30.34,NNE,18,1.0,1.0,99,0.00,,,0.00,28,Wunderground v.1.15,2013-08-25 11:22:00,
2013-08-25 07:28:00,61.5,61.2,30.34,NNE,18,0.0,2.0,99,0.00,,,0.00,30,Wunderground v.1.15,2013-08-25 11:28:00,
2013-08-25 07:34:00,62.0,61.7,30.35,NNE,18,1.0,2.0,99,0.00,,,0.00,32,Wunderground v.1.15,2013-08-25 11:34:00,
2013-08-25 07:40:00,62.4,62.1,30.35,NNE,18,2.0,2.0,99,0.00,,,0.00,35,Wunderground v.1.15,2013-08-25 11:40:00,
2013-08-25 07:46:00,62.7,62.4,30.36,NNE,17,2.0,5.0,99,0.00,,,0.00,37,Wunderground v.1.15,2013-08-25 11:46:00,
2013-08-25 07:52:00,63.1,62.8,30.36,NE,42,3.0,3.0,99,0.00,,,0.00,53,Wunderground v.1.15,2013-08-25 11:52:00,
2013-08-25 07:58:00,63.4,63.1,30.36,North,0,4.0,4.0,99,0.00,,,0.00,95,Wunderground v.1.15,2013-08-25 11:58:00,
2013-08-25 08:04:00,63.7,63.4,30.37,NNE,23,4.0,4.0,99,0.00,,,0.00,194,Wunderground v.1.15,2013-08-25 12:04:00,
2013-08-25 08:10:00,63.9,63.6,30.37,NNE,25,3.0,5.0,99,0.00,,,0.00,206,Wunderground v.1.15,2013-08-25 12:10:00,
2013-08-25 08:16:00,64.0,63.7,30.37,North,7,4.0,6.0,99,0.00,,,0.00,229,Wunderground v.1.15,2013-08-25 12:16:00,
2013-08-25 08:22:00,64.5,64.2,30.37,NNE,20,4.0,7.0,99,0.00,,,0.00,250,Wunderground v.1.15,2013-08-25 12:22:00,
2013-08-25 08:28:00,65.2,64.6,30.37,North,356,4.0,7.0,98,0.00,,,0.00,267,Wunderground v.1.15,2013-08-25 12:28:00,
2013-08-25 08:34:00,65.8,64.3,30.38,NNE,30,4.0,4.0,95,0.00,,,0.00,285,Wunderground v.1.15,2013-08-25 12:34:00,
2013-08-25 08:40:00,66.9,64.5,30.38,NE,48,4.0,4.0,92,0.00,,,0.00,306,Wunderground v.1.15,2013-08-25 12:40:00,
2013-08-25 08:46:00,67.6,64.2,30.38,ENE,58,4.0,6.0,89,0.00,,,0.00,329,Wunderground v.1.15,2013-08-25 12:46:00,
2013-08-25 08:52:00,68.3,64.3,30.38,NE,55,5.0,6.0,87,0.00,,,0.00,359,Wunderground v.1.15,2013-08-25 12:52:00,
2013-08-25 08:58:00,69.3,64.6,30.38,NE,40,5.0,6.0,85,0.00,,,0.00,382,Wunderground v.1.15,2013-08-25 12:58:00,
2013-08-25 09:04:00,70.3,65.2,30.38,NE,44,4.0,5.0,84,0.00,,,0.00,401,Wunderground v.1.15,2013-08-25 13:04:00,
2013-08-25 09:10:00,70.8,65.4,30.38,East,80,3.0,5.0,83,0.00,,,0.00,422,Wunderground v.1.15,2013-08-25 13:10:00,
2013-08-25 09:16:00,71.1,64.6,30.37,East,79,3.0,6.0,80,0.00,,,0.00,440,Wunderground v.1.15,2013-08-25 13:16:00,
2013-08-25 09:22:00,71.6,65.1,30.37,NE,48,3.0,5.0,80,0.00,,,0.00,447,Wunderground v.1.15,2013-08-25 13:22:00,
2013-08-25 09:28:00,72.1,64.5,30.37,East,97,4.0,7.0,77,0.00,,,0.00,475,Wunderground v.1.15,2013-08-25 13:28:00,
2013-08-25 09:34:00,72.8,64.8,30.38,NE,54,5.0,7.0,76,0.00,,,0.00,494,Wunderground v.1.15,2013-08-25 13:34:00,
2013-08-25 09:40:00,73.2,63.2,30.38,ENE,73,5.0,10.0,71,0.00,,,0.00,512,Wunderground v.1.15,2013-08-25 13:40:00,
2013-08-25 09:46:00,73.5,64.7,30.38,ENE,73,5.0,10.0,74,0.00,,,0.00,540,Wunderground v.1.15,2013-08-25 13:46:00,
2013-08-25 09:52:00,73.9,63.9,30.38,East,90,5.0,5.0,71,0.00,,,0.00,545,Wunderground v.1.15,2013-08-25 13:52:00,
2013-08-25 09:58:00,73.9,64.3,30.38,East,95,5.0,10.0,72,0.00,,,0.00,644,Wunderground v.1.15,2013-08-25 13:58:00,
2013-08-25 10:04:00,73.3,62.9,30.38,NE,35,4.0,5.0,70,0.00,,,0.00,144,Wunderground v.1.15,2013-08-25 14:04:00,
2013-08-25 10:10:00,74.2,63.8,30.38,East,93,4.0,5.0,70,0.00,,,0.00,667,Wunderground v.1.15,2013-08-25 14:10:00,
2013-08-25 10:16:00,74.9,64.5,30.39,ENE,68,5.0,5.0,70,0.00,,,0.00,683,Wunderground v.1.15,2013-08-25 14:16:00,
2013-08-25 10:22:00,75.6,63.9,30.39,ESE,123,5.0,5.0,67,0.00,,,0.00,716,Wunderground v.1.15,2013-08-25 14:22:00,
2013-08-25 10:28:00,76.0,63.8,30.39,NNE,17,5.0,7.0,66,0.00,,,0.00,215,Wunderground v.1.15,2013-08-25 14:28:00,
2013-08-25 10:34:00,75.1,62.5,30.39,NE,38,7.0,10.0,65,0.00,,,0.00,215,Wunderground v.1.15,2013-08-25 14:34:00,
2013-08-25 10:40:00,74.7,63.9,30.39,ENE,65,8.0,8.0,69,0.00,,,0.00,802,Wunderground v.1.15,2013-08-25 14:40:00,
2013-08-25 10:46:00,76.0,65.1,30.39,NE,47,6.0,8.0,69,0.00,,,0.00,838,Wunderground v.1.15,2013-08-25 14:46:00,
2013-08-25 10:52:00,76.1,63.5,30.39,North,6,6.0,6.0,65,0.00,,,0.00,838,Wunderground v.1.15,2013-08-25 14:52:00,
2013-08-25 10:58:00,76.7,63.6,30.39,NNE,23,7.0,10.0,64,0.00,,,0.00,838,Wunderground v.1.15,2013-08-25 14:58:00,
2013-08-25 11:04:00,76.0,62.9,30.39,ENE,76,8.0,12.0,64,0.00,,,0.00,838,Wunderground v.1.15,2013-08-25 15:04:00,
2013-08-25 11:10:00,75.6,63.0,30.39,ENE,64,9.0,12.0,65,0.00,,,0.00,838,Wunderground v.1.15,2013-08-25 15:10:00,
2013-08-25 11:16:00,76.0,62.9,30.38,NNE,32,8.0,12.0,64,0.00,,,0.00,709,Wunderground v.1.15,2013-08-25 15:16:00,
2013-08-25 11:22:00,77.0,62.5,30.38,East,89,7.0,7.0,61,0.00,,,0.00,834,Wunderground v.1.15,2013-08-25 15:22:00,
2013-08-25 11:28:00,77.7,63.2,30.38,NNE,20,7.0,12.0,61,0.00,,,0.00,834,Wunderground v.1.15,2013-08-25 15:28:00,
2013-08-25 11:34:00,77.7,62.7,30.38,North,11,8.0,13.0,60,0.00,,,0.00,920,Wunderground v.1.15,2013-08-25 15:34:00,
2013-08-25 11:41:00,77.4,62.4,30.38,NNE,18,9.0,9.0,60,0.00,,,0.00,959,Wunderground v.1.15,2013-08-25 15:41:00,
2013-08-25 11:46:00,77.7,64.5,30.37,East,79,7.0,9.0,64,0.00,,,0.00,850,Wunderground v.1.15,2013-08-25 15:46:00,
2013-08-25 11:52:00,77.6,60.7,30.37,North,3,6.0,10.0,56,0.00,,,0.00,419,Wunderground v.1.15,2013-08-25 15:52:00,
2013-08-25 11:58:00,77.0,61.6,30.37,ENE,69,6.0,10.0,59,0.00,,,0.00,482,Wunderground v.1.15,2013-08-25 15:58:00,
2013-08-25 12:04:00,77.7,61.3,30.37,East,97,6.0,12.0,57,0.00,,,0.00,894,Wunderground v.1.15,2013-08-25 16:04:00,
2013-08-25 12:11:00,78.6,61.1,30.37,North,11,6.0,10.0,55,0.00,,,0.00,998,Wunderground v.1.15,2013-08-25 16:11:00,
2013-08-25 12:16:00,78.8,60.7,30.36,East,93,8.0,12.0,54,0.00,,,0.00,918,Wunderground v.1.15,2013-08-25 16:16:00,
2013-08-25 12:22:00,79.9,63.3,30.36,ENE,64,6.0,7.0,57,0.00,,,0.00,1045,Wunderground v.1.15,2013-08-25 16:22:00,
2013-08-25 12:28:00,80.1,63.0,30.36,East,100,6.0,12.0,56,0.00,,,0.00,899,Wunderground v.1.15,2013-08-25 16:28:00,
2013-08-25 12:34:00,79.0,61.5,30.36,NE,49,7.0,7.0,55,0.00,,,0.00,679,Wunderground v.1.15,2013-08-25 16:34:00,
2013-08-25 12:41:00,79.0,62.0,30.36,ENE,66,6.0,6.0,56,0.00,,,0.00,987,Wunderground v.1.15,2013-08-25 16:41:00,
2013-08-25 12:46:00,79.0,60.4,30.35,NNE,20,6.0,10.0,53,0.00,,,0.00,822,Wunderground v.1.15,2013-08-25 16:46:00,
2013-08-25 12:52:00,79.2,60.6,30.35,East,79,7.0,10.0,53,0.00,,,0.00,899,Wunderground v.1.15,2013-08-25 16:52:00,
2013-08-25 12:58:00,79.2,61.6,30.35,NE,51,7.0,10.0,55,0.00,,,0.00,632,Wunderground v.1.15,2013-08-25 16:58:00,
2013-08-25 13:04:00,79.0,61.5,30.36,SE,143,7.0,10.0,55,0.00,,,0.00,792,Wunderground v.1.15,2013-08-25 17:04:00,
2013-08-25 13:10:00,79.6,60.4,30.36,NE,48,5.0,9.0,52,0.00,,,0.00,940,Wunderground v.1.15,2013-08-25 17:10:00,
2013-08-25 13:16:00,79.9,60.2,30.35,SSE,157,6.0,11.0,51,0.00,,,0.00,950,Wunderground v.1.15,2013-08-25 17:16:00,
2013-08-25 13:22:00,79.6,61.5,30.35,NE,49,7.0,7.0,54,0.00,,,0.00,751,Wunderground v.1.15,2013-08-25 17:22:00,
2013-08-25 13:28:00,79.8,60.6,30.35,SSE,150,7.0,12.0,52,0.00,,,0.00,897,Wunderground v.1.15,2013-08-25 17:28:00,
2013-08-25 13:34:00,80.3,60.5,30.34,ENE,69,5.0,6.0,51,0.00,,,0.00,1029,Wunderground v.1.15,2013-08-25 17:34:00,
2013-08-25 13:40:00,80.5,60.7,30.34,NNE,30,6.0,10.0,51,0.00,,,0.00,1029,Wunderground v.1.15,2013-08-25 17:40:00,
2013-08-25 13:46:00,80.1,59.8,30.34,NE,51,8.0,10.0,50,0.00,,,0.00,1075,Wunderground v.1.15,2013-08-25 17:46:00,
2013-08-25 13:52:00,80.1,60.9,30.34,ESE,114,7.0,7.0,52,0.00,,,0.00,996,Wunderground v.1.15,2013-08-25 17:52:00,
2013-08-25 13:58:00,79.9,59.6,30.34,East,90,6.0,12.0,50,0.00,,,0.00,887,Wunderground v.1.15,2013-08-25 17:58:00,
2013-08-25 14:04:00,80.3,60.0,30.34,NE,37,5.0,6.0,50,0.00,,,0.00,774,Wunderground v.1.15,2013-08-25 18:04:00,
2013-08-25 14:10:00,81.1,62.3,30.34,ENE,72,5.0,9.0,53,0.00,,,0.00,959,Wunderground v.1.15,2013-08-25 18:10:00,
2013-08-25 14:16:00,81.2,62.4,30.33,NNE,27,6.0,12.0,53,0.00,,,0.00,952,Wunderground v.1.15,2013-08-25 18:16:00,
2013-08-25 14:22:00,80.1,59.2,30.33,NE,47,8.0,13.0,49,0.00,,,0.00,507,Wunderground v.1.15,2013-08-25 18:22:00,
2013-08-25 14:28:00,80.1,58.0,30.33,NNE,32,6.0,13.0,47,0.00,,,0.00,737,Wunderground v.1.15,2013-08-25 18:28:00,
2013-08-25 14:34:00,80.9,58.8,30.33,NE,56,6.0,7.0,47,0.00,,,0.00,850,Wunderground v.1.15,2013-08-25 18:34:00,
2013-08-25 14:40:00,81.2,60.8,30.33,East,85,7.0,10.0,50,0.00,,,0.00,832,Wunderground v.1.15,2013-08-25 18:40:00,
2013-08-25 14:46:00,81.2,59.6,30.32,ENE,58,6.0,7.0,48,0.00,,,0.00,795,Wunderground v.1.15,2013-08-25 18:46:00,
2013-08-25 14:52:00,81.4,58.0,30.32,NE,55,6.0,6.0,45,0.00,,,0.00,704,Wunderground v.1.15,2013-08-25 18:52:00,
2013-08-25 14:58:00,81.6,58.2,30.32,East,88,5.0,6.0,45,0.00,,,0.00,635,Wunderground v.1.15,2013-08-25 18:58:00,
2013-08-25 15:04:00,81.1,58.4,30.32,ESE,110,5.0,10.0,46,0.00,,,0.00,452,Wunderground v.1.15,2013-08-25 19:04:00,
2013-08-25 15:10:00,80.9,59.4,30.32,NE,44,5.0,5.0,48,0.00,,,0.00,560,Wunderground v.1.15,2013-08-25 19:10:00,
2013-08-25 15:16:00,80.5,58.4,30.31,NE,48,4.0,7.0,47,0.00,,,0.00,449,Wunderground v.1.15,2013-08-25 19:16:00,
2013-08-25 15:22:00,79.9,58.5,30.31,East,80,5.0,6.0,48,0.00,,,0.00,494,Wunderground v.1.15,2013-08-25 19:22:00,
2013-08-25 15:28:00,80.3,60.5,30.31,NE,38,4.0,6.0,51,0.00,,,0.00,737,Wunderground v.1.15,2013-08-25 19:28:00,
2013-08-25 15:34:00,81.1,59.6,30.31,ESE,110,4.0,8.0,48,0.00,,,0.00,718,Wunderground v.1.15,2013-08-25 19:34:00,
2013-08-25 15:40:00,80.9,58.2,30.31,ESE,119,4.0,4.0,46,0.00,,,0.00,739,Wunderground v.1.15,2013-08-25 19:40:00,
2013-08-25 15:46:00,81.1,57.7,30.30,East,86,5.0,7.0,45,0.00,,,0.00,706,Wunderground v.1.15,2013-08-25 19:46:00,
2013-08-25 15:52:00,81.1,58.4,30.30,ENE,75,5.0,6.0,46,0.00,,,0.00,681,Wunderground v.1.15,2013-08-25 19:52:00,
2013-08-25 15:58:00,81.2,57.8,30.30,NE,54,6.0,13.0,45,0.00,,,0.00,669,Wunderground v.1.15,2013-08-25 19:58:00,
2013-08-25 16:04:00,81.1,58.4,30.30,NE,40,7.0,7.0,46,0.00,,,0.00,591,Wunderground v.1.15,2013-08-25 20:04:00,
2013-08-25 16:10:00,80.7,58.0,30.30,SE,136,4.0,4.0,46,0.00,,,0.00,593,Wunderground v.1.15,2013-08-25 20:10:00,
2013-08-25 16:16:00,80.7,56.8,30.29,East,79,4.0,9.0,44,0.00,,,0.00,533,Wunderground v.1.15,2013-08-25 20:16:00,
2013-08-25 16:22:00,80.3,55.1,30.29,NE,52,6.0,10.0,42,0.00,,,0.00,516,Wunderground v.1.15,2013-08-25 20:22:00,
2013-08-25 16:28:00,80.3,56.4,30.29,NW,313,6.0,10.0,44,0.00,,,0.00,452,Wunderground v.1.15,2013-08-25 20:28:00,
2013-08-25 16:34:00,80.3,58.2,30.29,NE,52,6.0,10.0,47,0.00,,,0.00,450,Wunderground v.1.15,2013-08-25 20:34:00,
2013-08-25 16:40:00,80.1,58.6,30.29,NE,52,6.0,6.0,48,0.00,,,0.00,313,Wunderground v.1.15,2013-08-25 20:40:00,
2013-08-25 16:46:00,80.1,58.0,30.29,ENE,73,5.0,12.0,47,0.00,,,0.00,282,Wunderground v.1.15,2013-08-25 20:46:00,
2013-08-25 16:52:00,79.9,57.3,30.29,SSW,195,5.0,9.0,46,0.00,,,0.00,313,Wunderground v.1.15,2013-08-25 20:52:00,
2013-08-25 16:58:00,79.4,57.4,30.29,ENE,73,4.0,9.0,47,0.00,,,0.00,160,Wunderground v.1.15,2013-08-25 20:58:00,
2013-08-25 17:04:00,79.6,59.3,30.30,East,82,5.0,5.0,50,0.00,,,0.00,260,Wunderground v.1.15,2013-08-25 21:04:00,
2013-08-25 17:10:00,79.6,59.3,30.30,East,96,5.0,5.0,50,0.00,,,0.00,118,Wunderground v.1.15,2013-08-25 21:10:00,
2013-08-25 17:16:00,79.6,57.0,30.29,ENE,76,6.0,7.0,46,0.00,,,0.00,143,Wunderground v.1.15,2013-08-25 21:16:00,
2013-08-25 17:22:00,79.2,57.2,30.29,NE,42,6.0,6.0,47,0.00,,,0.00,107,Wunderground v.1.15,2013-08-25 21:22:00,
2013-08-25 17:28:00,79.0,58.2,30.29,ENE,65,5.0,6.0,49,0.00,,,0.00,97,Wunderground v.1.15,2013-08-25 21:28:00,
2013-08-25 17:34:00,79.0,57.0,30.29,SE,127,5.0,7.0,47,0.00,,,0.00,137,Wunderground v.1.15,2013-08-25 21:34:00,
2013-08-25 17:41:00,78.8,58.6,30.29,NE,55,4.0,7.0,50,0.00,,,0.00,91,Wunderground v.1.15,2013-08-25 21:41:00,
2013-08-25 17:46:00,79.2,58.4,30.30,NE,40,6.0,7.0,49,0.00,,,0.00,83,Wunderground v.1.15,2013-08-25 21:46:00,
2013-08-25 17:52:00,78.8,56.3,30.30,SE,136,5.0,5.0,46,0.00,,,0.00,229,Wunderground v.1.15,2013-08-25 21:52:00,
2013-08-25 17:58:00,78.6,56.7,30.30,NNE,27,4.0,6.0,47,0.00,,,0.00,109,Wunderground v.1.15,2013-08-25 21:58:00,
2013-08-25 18:04:00,78.8,57.4,30.29,SE,131,3.0,3.0,48,0.00,,,0.00,245,Wunderground v.1.15,2013-08-25 22:04:00,
2013-08-25 18:10:00,78.6,57.8,30.29,East,88,2.0,5.0,49,0.00,,,0.00,253,Wunderground v.1.15,2013-08-25 22:10:00,
2013-08-25 18:16:00,79.0,58.8,30.29,NE,55,3.0,7.0,50,0.00,,,0.00,218,Wunderground v.1.15,2013-08-25 22:16:00,
2013-08-25 18:22:00,78.6,57.8,30.29,ESE,109,5.0,7.0,49,0.00,,,0.00,151,Wunderground v.1.15,2013-08-25 22:22:00,
2013-08-25 18:28:00,78.6,57.8,30.29,East,99,4.0,7.0,49,0.00,,,0.00,179,Wunderground v.1.15,2013-08-25 22:28:00,
2013-08-25 18:34:00,78.8,58.6,30.29,East,97,3.0,5.0,50,0.00,,,0.00,155,Wunderground v.1.15,2013-08-25 22:34:00,
2013-08-25 18:40:00,79.0,58.8,30.29,ENE,75,3.0,3.0,50,0.00,,,0.00,141,Wunderground v.1.15,2013-08-25 22:40:00,
2013-08-25 18:46:00,79.0,58.2,30.29,ESE,102,3.0,6.0,49,0.00,,,0.00,125,Wunderground v.1.15,2013-08-25 22:46:00,
2013-08-25 18:52:00,78.5,59.4,30.29,East,90,3.0,5.0,52,0.00,,,0.00,100,Wunderground v.1.15,2013-08-25 22:52:00,
2013-08-25 18:58:00,77.9,59.4,30.29,East,86,2.0,5.0,53,0.00,,,0.00,63,Wunderground v.1.15,2013-08-25 22:58:00,
2013-08-25 19:04:00,77.6,59.1,30.29,ENE,76,2.0,3.0,53,0.00,,,0.00,65,Wunderground v.1.15,2013-08-25 23:04:00,
2013-08-25 19:10:00,77.2,58.7,30.29,ENE,76,3.0,4.0,53,0.00,,,0.00,35,Wunderground v.1.15,2013-08-25 23:10:00,
2013-08-25 19:16:00,76.5,58.1,30.29,East,92,4.0,4.0,53,0.00,,,0.00,28,Wunderground v.1.15,2013-08-25 23:16:00,
2013-08-25 19:22:00,75.8,58.0,30.29,ENE,61,3.0,3.0,54,0.00,,,0.00,25,Wunderground v.1.15,2013-08-25 23:22:00,
2013-08-25 19:28:00,75.4,58.6,30.29,ESE,104,2.0,3.0,56,0.00,,,0.00,21,Wunderground v.1.15,2013-08-25 23:28:00,
2013-08-25 19:34:00,75.1,58.8,30.28,East,88,1.0,2.0,57,0.00,,,0.00,19,Wunderground v.1.15,2013-08-25 23:34:00,
2013-08-25 19:40:00,74.6,58.4,30.28,East,88,1.0,1.0,57,0.00,,,0.00,12,Wunderground v.1.15,2013-08-25 23:40:00,
2013-08-25 19:46:00,74.2,58.5,30.29,East,88,1.0,1.0,58,0.00,,,0.00,9,Wunderground v.1.15,2013-08-25 23:46:00,
2013-08-25 19:52:00,73.7,58.5,30.29,East,88,1.0,2.0,59,0.00,,,0.00,5,Wunderground v.1.15,2013-08-25 23:52:00,
2013-08-25 19:58:00,73.2,58.9,30.29,East,88,0.0,2.0,61,0.00,,,0.00,0,Wunderground v.1.15,2013-08-25 23:58:00,
2013-08-25 20:04:00,72.5,58.7,30.28,East,88,0.0,0.0,62,0.00,,,0.00,0,Wunderground v.1.15,2013-08-26 00:04:00,
2013-08-25 20:10:00,72.0,59.2,30.28,East,88,0.0,0.0,64,0.00,,,0.00,0,Wunderground v.1.15,2013-08-26 00:10:00,
2013-08-25 20:16:00,71.6,59.6,30.29,East,88,0.0,0.0,66,0.00,,,0.00,0,Wunderground v.1.15,2013-08-26 00:16:00,
2013-08-25 20:22:00,70.9,60.2,30.29,East,88,0.0,0.0,69,0.00,,,0.00,0,Wunderground v.1.15,2013-08-26 00:22:00,
2013-08-25 20:28:00,70.4,60.5,30.29,East,88,0.0,0.0,71,0.00,,,0.00,0,Wunderground v.1.15,2013-08-26 00:28:00,
2013-08-25 20:34:00,69.9,60.8,30.29,East,88,0.0,0.0,73,0.00,,,0.00,0,Wunderground v.1.15,2013-08-26 00:34:00,
2013-08-25 20:40:00,69.4,60.8,30.29,East,88,0.0,0.0,74,0.00,,,0.00,0,Wunderground v.1.15,2013-08-26 00:40:00,
2013-08-25 20:46:00,68.9,61.0,30.29,East,88,0.0,0.0,76,0.00,,,0.00,0,Wunderground v.1.15,2013-08-26 00:46:00,
2013-08-25 20:52:00,68.3,60.8,30.29,East,88,0.0,0.0,77,0.00,,,0.00,0,Wunderground v.1.15,2013-08-26 00:52:00,
2013-08-25 20:58:00,67.9,60.4,30.29,East,88,0.0,0.0,77,0.00,,,0.00,0,Wunderground v.1.15,2013-08-26 00:58:00,
2013-08-25 21:04:00,67.4,60.3,30.29,East,88,0.0,0.0,78,0.00,,,0.00,0,Wunderground v.1.15,2013-08-26 01:04:00,
2013-08-25 21:10:00,66.9,59.8,30.29,East,88,0.0,0.0,78,0.00,,,0.00,0,Wunderground v.1.15,2013-08-26 01:10:00,
2013-08-25 21:16:00,66.6,59.9,30.30,East,88,0.0,0.0,79,0.00,,,0.00,0,Wunderground v.1.15,2013-08-26 01:16:00,
2013-08-25 21:22:00,66.3,60.3,30.30,East,88,0.0,0.0,81,0.00,,,0.00,0,Wunderground v.1.15,2013-08-26 01:22:00,
2013-08-25 21:28:00,66.0,60.0,30.30,East,88,0.0,0.0,81,0.00,,,0.00,0,Wunderground v.1.15,2013-08-26 01:28:00,
2013-08-25 21:34:00,65.6,59.6,30.30,East,88,0.0,0.0,81,0.00,,,0.00,0,Wunderground v.1.15,2013-08-26 01:34:00,
2013-08-25 21:40:00,65.3,59.7,30.30,East,88,0.0,0.0,82,0.00,,,0.00,0,Wunderground v.1.15,2013-08-26 01:40:00,
2013-08-25 21:46:00,65.2,59.9,30.30,East,88,0.0,0.0,83,0.00,,,0.00,0,Wunderground v.1.15,2013-08-26 01:46:00,
2013-08-25 21:52:00,64.8,59.5,30.30,East,88,0.0,0.0,83,0.00,,,0.00,0,Wunderground v.1.15,2013-08-26 01:52:00,
2013-08-25 21:58:00,64.7,59.8,30.30,East,88,0.0,0.0,84,0.00,,,0.00,0,Wunderground v.1.15,2013-08-26 01:58:00,
2013-08-25 22:04:00,64.3,59.4,30.30,East,88,0.0,0.0,84,0.00,,,0.00,0,Wunderground v.1.15,2013-08-26 02:04:00,
2013-08-25 22:10:00,64.2,59.6,30.30,East,88,0.0,0.0,85,0.00,,,0.00,0,Wunderground v.1.15,2013-08-26 02:10:00,
2013-08-25 22:16:00,64.0,59.7,30.30,East,88,0.0,0.0,86,0.00,,,0.00,0,Wunderground v.1.15,2013-08-26 02:16:00,
2013-08-25 22:22:00,63.9,60.0,30.30,East,88,0.0,0.0,87,0.00,,,0.00,0,Wunderground v.1.15,2013-08-26 02:22:00,
2013-08-25 22:28:00,63.7,60.1,30.30,East,88,0.0,0.0,88,0.00,,,0.00,0,Wunderground v.1.15,2013-08-26 02:28:00,
2013-08-25 22:34:00,63.4,59.8,30.31,East,88,0.0,0.0,88,0.00,,,0.00,0,Wunderground v.1.15,2013-08-26 02:34:00,
2013-08-25 22:40:00,63.2,59.9,30.31,East,88,0.0,0.0,89,0.00,,,0.00,0,Wunderground v.1.15,2013-08-26 02:40:00,
2013-08-25 22:46:00,63.1,59.8,30.31,East,88,0.0,0.0,89,0.00,,,0.00,0,Wunderground v.1.15,2013-08-26 02:46:00,
2013-08-25 22:52:00,62.9,59.6,30.31,East,88,0.0,0.0,89,0.00,,,0.00,0,Wunderground v.1.15,2013-08-26 02:52:00,
2013-08-25 22:58:00,62.7,59.4,30.31,East,88,0.0,0.0,89,0.00,,,0.00,0,Wunderground v.1.15,2013-08-26 02:58:00,
2013-08-25 23:04:00,62.6,59.6,30.31,East,88,0.0,0.0,90,0.00,,,0.00,0,Wunderground v.1.15,2013-08-26 03:04:00,
2013-08-25 23:10:00,62.6,59.9,30.31,East,88,0.0,0.0,91,0.00,,,0.00,0,Wunderground v.1.15,2013-08-26 03:10:00,
2013-08-25 23:16:00,62.4,59.7,30.31,East,88,0.0,0.0,91,0.00,,,0.00,0,Wunderground v.1.15,2013-08-26 03:16:00,
2013-08-25 23:22:00,62.4,59.7,30.31,East,88,0.0,0.0,91,0.00,,,0.00,0,Wunderground v.1.15,2013-08-26 03:22:00,
2013-08-25 23:28:00,62.3,59.9,30.31,East,88,0.0,0.0,92,0.00,,,0.00,0,Wunderground v.1.15,2013-08-26 03:28:00,
2013-08-25 23:34:00,62.1,59.7,30.31,East,88,0.0,0.0,92,0.00,,,0.00,0,Wunderground v.1.15,2013-08-26 03:34:00,
2013-08-25 23:40:00,62.0,59.6,30.31,East,88,0.0,0.0,92,0.00,,,0.00,0,Wunderground v.1.15,2013-08-26 03:40:00,
2013-08-25 23:46:00,61.8,59.5,30.32,East,88,0.0,0.0,92,0.00,,,0.00,0,Wunderground v.1.15,2013-08-26 03:46:00,
2013-08-25 23:52:00,61.6,59.3,30.32,East,88,0.0,0.0,92,0.00,,,0.00,0,Wunderground v.1.15,2013-08-26 03:52:00,
2013-08-25 23:58:00,61.5,59.2,30.32,East,88,0.0,0.0,92,0.00,,,0.00,0,Wunderground v.1.15,2013-08-26 03:58:00,